Time;durP1;ratioP1;P1;durP2;ratioP2;P2;SDS_P1;SDS_P2;PMS_P1;PMS_P2;Temp;Humidity;BMP_temperature;BMP_pressure;BME280_temperature;BME280_humidity;BME280_pressure;Samples;Min_cycle;Max_cycle;Signal;HPM_P1;HPM_P2
2023/08/08 00:00:13;;;;;;;6.35;4.30;;;14.80;99.90;;;;;;5141421;27;20199;-85
2023/08/08 00:02:43;;;;;;;8.10;4.00;;;14.90;99.90;;;;;;5144045;27;20223;-85
2023/08/08 00:05:14;;;;;;;9.60;4.38;;;14.90;99.90;;;;;;5145357;27;20199;-85
2023/08/08 00:07:45;;;;;;;9.20;4.45;;;15.00;99.90;;;;;;5155656;27;20193;-85
2023/08/08 00:10:18;;;;;;;9.07;3.95;;;15.00;99.90;;;;;;5156018;27;20284;-85
2023/08/08 00:12:50;;;;;;;6.15;4.00;;;15.10;99.90;;;;;;5153106;27;20205;-85
2023/08/08 00:15:21;;;;;;;7.07;4.20;;;15.10;99.90;;;;;;5143133;27;20247;-85
2023/08/08 00:17:52;;;;;;;5.60;4.25;;;15.20;99.90;;;;;;5144521;27;20236;-85
2023/08/08 00:20:23;;;;;;;6.43;4.20;;;15.20;99.90;;;;;;5146542;27;20193;-86
2023/08/08 00:22:54;;;;;;;7.80;4.35;;;15.30;99.90;;;;;;5135089;27;20197;-83
2023/08/08 00:25:26;;;;;;;4.55;3.70;;;15.40;99.90;;;;;;5133744;27;20671;-83
2023/08/08 00:27:57;;;;;;;6.53;4.72;;;15.40;99.90;;;;;;5133868;27;20182;-84
2023/08/08 00:30:28;;;;;;;6.28;3.85;;;15.50;99.90;;;;;;5134309;27;20213;-84
2023/08/08 00:32:59;;;;;;;6.13;3.80;;;15.60;99.90;;;;;;5142509;27;20341;-84
2023/08/08 00:35:29;;;;;;;6.47;4.13;;;15.60;99.90;;;;;;5155135;27;20213;-85
2023/08/08 00:38:00;;;;;;;7.50;4.22;;;15.60;99.90;;;;;;5153333;27;20590;-85
2023/08/08 00:40:33;;;;;;;6.10;3.85;;;15.60;99.90;;;;;;5153799;27;20619;-84
2023/08/08 00:43:03;;;;;;;6.75;3.47;;;15.60;99.90;;;;;;5145024;27;20186;-85
2023/08/08 00:45:34;;;;;;;5.95;3.60;;;15.60;99.90;;;;;;5135147;27;20194;-86
2023/08/08 00:48:06;;;;;;;6.60;4.60;;;15.70;99.90;;;;;;5154401;27;20194;-87
2023/08/08 00:50:37;;;;;;;7.15;3.72;;;15.60;99.90;;;;;;5135430;27;20315;-87
2023/08/08 00:53:08;;;;;;;5.85;4.05;;;15.70;99.90;;;;;;5135034;27;20198;-85
2023/08/08 00:55:42;;;;;;;10.40;4.60;;;15.70;99.90;;;;;;5133350;27;20193;-87
2023/08/08 00:58:13;;;;;;;7.50;4.00;;;15.80;99.90;;;;;;5117223;27;20577;-88
2023/08/08 01:00:44;;;;;;;5.68;3.75;;;15.90;99.90;;;;;;5116640;27;20557;-86
2023/08/08 01:03:15;;;;;;;8.77;4.32;;;15.90;99.90;;;;;;5134028;27;20186;-86
2023/08/08 01:05:53;;;;;;;7.05;4.20;;;15.90;99.90;;;;;;5137903;27;20189;-87
2023/08/08 01:08:30;;;;;;;6.70;3.83;;;16.00;99.90;;;;;;5156311;27;20253;-85
2023/08/08 01:11:04;;;;;;;9.40;4.00;;;16.00;99.90;;;;;;5158800;27;20192;-85
2023/08/08 01:13:35;;;;;;;6.97;4.18;;;15.90;99.90;;;;;;5147381;27;20213;-84
2023/08/08 01:16:07;;;;;;;5.28;3.45;;;15.90;99.90;;;;;;5134315;27;20567;-84
2023/08/08 01:18:39;;;;;;;7.20;3.83;;;16.00;99.90;;;;;;5152777;27;20702;-83
2023/08/08 01:21:12;;;;;;;4.03;2.97;;;16.00;99.90;;;;;;5141942;27;20198;-83
2023/08/08 01:23:52;;;;;;;5.95;3.30;;;16.10;99.90;;;;;;5141938;27;20546;-84
2023/08/08 01:26:25;;;;;;;9.38;4.15;;;16.20;99.90;;;;;;5134081;27;20193;-83
2023/08/08 01:28:57;;;;;;;6.45;3.90;;;16.20;99.90;;;;;;5145868;27;20197;-84
2023/08/08 01:31:28;;;;;;;5.45;4.10;;;16.20;99.90;;;;;;5154097;27;20580;-84
2023/08/08 01:33:59;;;;;;;6.53;4.00;;;16.30;99.90;;;;;;5151398;27;20207;-84
2023/08/08 01:36:37;;;;;;;8.55;4.05;;;16.60;99.90;;;;;;5134010;27;20194;-84
2023/08/08 01:39:11;;;;;;;6.32;3.90;;;16.60;99.90;;;;;;5140307;27;20252;-83
2023/08/08 01:41:47;;;;;;;7.35;3.70;;;16.70;99.90;;;;;;5133318;27;20228;-84
2023/08/08 01:44:18;;;;;;;4.78;3.10;;;16.80;99.90;;;;;;5135118;27;20620;-85
2023/08/08 01:46:49;;;;;;;5.38;2.55;;;16.90;99.90;;;;;;5153981;27;20189;-85
2023/08/08 01:49:23;;;;;;;7.00;2.15;;;17.00;99.90;;;;;;5153764;27;20193;-84
2023/08/08 01:51:54;;;;;;;5.43;2.38;;;17.10;99.90;;;;;;5153469;27;20193;-84
2023/08/08 01:54:25;;;;;;;3.22;2.03;;;17.20;99.90;;;;;;5146656;27;20198;-84
2023/08/08 01:56:58;;;;;;;3.83;1.98;;;17.30;99.90;;;;;;5132912;27;20568;-83
2023/08/08 01:59:28;;;;;;;5.43;2.55;;;17.50;99.90;;;;;;5133049;27;20679;-84
2023/08/08 02:01:59;;;;;;;3.28;1.92;;;17.70;99.90;;;;;;5144750;27;20203;-83
2023/08/08 02:04:30;;;;;;;4.57;2.40;;;17.90;99.90;;;;;;5153596;27;20193;-84
2023/08/08 02:07:01;;;;;;;4.72;2.55;;;18.00;99.90;;;;;;5153219;27;20225;-83
2023/08/08 02:09:31;;;;;;;5.60;2.10;;;18.30;99.90;;;;;;5153277;27;20194;-84
2023/08/08 02:12:04;;;;;;;3.70;2.22;;;18.40;99.90;;;;;;5152369;27;20678;-83
2023/08/08 02:14:37;;;;;;;4.13;2.05;;;18.30;99.90;;;;;;5157357;27;20204;-82
2023/08/08 02:17:08;;;;;;;7.55;3.20;;;18.20;99.90;;;;;;5144093;27;20186;-83
2023/08/08 02:19:41;;;;;;;3.60;1.92;;;18.20;99.90;;;;;;5132540;27;20324;-84
2023/08/08 02:22:13;;;;;;;1.95;1.63;;;18.20;99.90;;;;;;5132345;27;20202;-83
2023/08/08 02:24:44;;;;;;;4.43;1.88;;;18.00;99.90;;;;;;5135917;27;20194;-84
2023/08/08 02:27:16;;;;;;;6.45;1.70;;;18.10;99.90;;;;;;5136142;27;20209;-83
2023/08/08 02:29:47;;;;;;;4.55;1.80;;;18.10;99.90;;;;;;5154335;27;20197;-84
2023/08/08 02:32:18;;;;;;;4.97;1.50;;;18.20;99.90;;;;;;5159843;27;20194;-83
2023/08/08 02:34:49;;;;;;;4.65;1.70;;;18.30;99.90;;;;;;5136157;27;20224;-84
2023/08/08 02:37:20;;;;;;;3.28;1.50;;;18.40;99.90;;;;;;5132281;27;20212;-84
2023/08/08 02:39:50;;;;;;;2.83;1.55;;;18.50;99.90;;;;;;5143323;27;20227;-83
2023/08/08 02:42:23;;;;;;;3.15;1.92;;;18.70;99.90;;;;;;5152547;27;20204;-84
2023/08/08 02:44:54;;;;;;;2.55;1.52;;;18.90;99.90;;;;;;5151582;27;20223;-85
2023/08/08 02:47:25;;;;;;;3.55;1.45;;;19.10;99.90;;;;;;5152761;27;20209;-84
2023/08/08 02:49:56;;;;;;;2.92;1.85;;;19.00;99.90;;;;;;5145293;27;20251;-83
2023/08/08 02:52:27;;;;;;;2.97;1.80;;;19.00;99.90;;;;;;5132097;27;20565;-84
2023/08/08 02:54:57;;;;;;;3.03;1.73;;;18.90;99.90;;;;;;5131843;27;20193;-84
2023/08/08 02:57:30;;;;;;;2.10;1.60;;;19.00;99.90;;;;;;5134308;27;20259;-84
2023/08/08 03:00:01;;;;;;;3.65;1.50;;;19.00;99.90;;;;;;5152245;27;20225;-84
2023/08/08 03:02:32;;;;;;;4.72;1.70;;;18.90;99.90;;;;;;5151782;27;20204;-84
2023/08/08 03:05:03;;;;;;;2.78;1.35;;;18.80;99.90;;;;;;5152254;27;20193;-84
2023/08/08 03:07:35;;;;;;;4.60;1.80;;;18.70;99.90;;;;;;5151376;27;20205;-84
2023/08/08 03:10:06;;;;;;;4.20;1.80;;;18.70;99.90;;;;;;5152755;27;20197;-85
2023/08/08 03:12:39;;;;;;;4.32;1.80;;;18.80;99.90;;;;;;5152612;27;20204;-83
2023/08/08 03:15:11;;;;;;;2.67;1.60;;;19.00;99.90;;;;;;5152497;27;20209;-82
2023/08/08 03:17:42;;;;;;;2.45;1.70;;;19.00;99.90;;;;;;5152361;27;20678;-84
2023/08/08 03:20:13;;;;;;;3.47;1.67;;;19.10;99.90;;;;;;5152864;27;20247;-84
2023/08/08 03:22:44;;;;;;;3.33;1.45;;;19.20;99.90;;;;;;5153204;27;20203;-83
2023/08/08 03:25:15;;;;;;;5.28;1.95;;;19.30;99.90;;;;;;5144167;27;20288;-84
2023/08/08 03:27:47;;;;;;;2.50;1.20;;;19.30;99.90;;;;;;5131757;27;20660;-83
2023/08/08 03:30:18;;;;;;;1.85;1.55;;;19.40;99.90;;;;;;5134115;27;20202;-84
2023/08/08 03:32:49;;;;;;;1.60;1.10;;;19.40;99.90;;;;;;5135606;27;20562;-83
2023/08/08 03:35:20;;;;;;;2.33;1.17;;;19.40;99.90;;;;;;5135723;27;20206;-84
2023/08/08 03:37:51;;;;;;;3.88;1.35;;;19.40;99.90;;;;;;5136209;27;20271;-83
2023/08/08 03:40:21;;;;;;;3.65;1.27;;;19.40;99.90;;;;;;5150987;27;20491;-84
2023/08/08 03:42:54;;;;;;;3.78;1.50;;;19.30;99.90;;;;;;5160587;27;20204;-84
2023/08/08 03:45:25;;;;;;;3.35;1.40;;;19.30;99.90;;;;;;5158048;27;20679;-83
2023/08/08 03:47:56;;;;;;;1.80;1.48;;;19.30;99.90;;;;;;5159031;27;20651;-83
2023/08/08 03:50:27;;;;;;;2.85;1.50;;;19.20;99.90;;;;;;5158076;27;20209;-82
2023/08/08 03:52:58;;;;;;;3.17;1.40;;;19.30;99.90;;;;;;5155417;27;20206;-83
2023/08/08 03:55:29;;;;;;;3.63;1.40;;;19.20;99.90;;;;;;5156387;27;20200;-84
2023/08/08 03:58:01;;;;;;;4.07;1.55;;;19.20;99.90;;;;;;5150542;27;20190;-84
2023/08/08 04:00:32;;;;;;;4.63;1.60;;;19.10;99.90;;;;;;5135860;27;20703;-83
2023/08/08 04:03:03;;;;;;;3.38;1.50;;;19.10;99.90;;;;;;5142277;27;20735;-83
2023/08/08 04:05:34;;;;;;;3.78;2.20;;;19.20;99.90;;;;;;5155637;27;20186;-84
2023/08/08 04:08:04;;;;;;;2.67;1.20;;;19.20;99.90;;;;;;5155769;27;20193;-83
2023/08/08 04:10:35;;;;;;;1.55;1.25;;;19.20;99.90;;;;;;5154994;27;20201;-84
2023/08/08 04:13:08;;;;;;;2.47;1.50;;;19.30;99.90;;;;;;5156181;27;20238;-84
2023/08/08 04:15:39;;;;;;;2.85;1.35;;;19.30;99.90;;;;;;5154455;27;20193;-84
2023/08/08 04:18:10;;;;;;;2.70;1.15;;;19.30;99.90;;;;;;5155625;27;20715;-84
2023/08/08 04:20:40;;;;;;;2.55;1.35;;;19.30;99.90;;;;;;5151100;27;20213;-85
2023/08/08 04:23:11;;;;;;;2.50;1.13;;;19.20;99.90;;;;;;5134900;27;20687;-84
2023/08/08 04:25:49;;;;;;;3.17;1.40;;;19.20;99.90;;;;;;5134655;27;20205;-83
2023/08/08 04:28:22;;;;;;;2.80;1.30;;;19.20;99.90;;;;;;5148997;27;20284;-83
2023/08/08 04:30:53;;;;;;;2.17;1.33;;;19.20;99.90;;;;;;5154465;27;20200;-83
2023/08/08 04:33:23;;;;;;;4.40;1.80;;;19.20;99.90;;;;;;5155650;27;20193;-83
2023/08/08 04:35:54;;;;;;;5.10;1.70;;;19.20;99.90;;;;;;5154992;27;20189;-84
2023/08/08 04:38:25;;;;;;;5.13;1.70;;;19.20;99.90;;;;;;5155017;27;20270;-84
2023/08/08 04:40:55;;;;;;;4.03;1.40;;;19.20;99.90;;;;;;5155059;27;20221;-84
2023/08/08 04:43:29;;;;;;;9.70;2.28;;;19.20;99.90;;;;;;5155969;27;20200;-83
2023/08/08 04:45:59;;;;;;;4.88;1.70;;;19.20;99.90;;;;;;5138774;27;20611;-84
2023/08/08 04:48:30;;;;;;;3.00;1.60;;;19.20;99.90;;;;;;5156274;27;20201;-85
2023/08/08 04:51:01;;;;;;;2.40;1.40;;;19.10;99.90;;;;;;5154662;27;20208;-85
2023/08/08 04:53:32;;;;;;;4.13;1.60;;;19.10;99.90;;;;;;5154967;27;21186;-84
2023/08/08 04:56:02;;;;;;;3.38;1.65;;;19.10;99.90;;;;;;5156652;27;20208;-83
2023/08/08 04:58:35;;;;;;;4.22;1.50;;;19.00;99.90;;;;;;5157346;27;20189;-84
2023/08/08 05:01:08;;;;;;;5.57;1.70;;;18.90;99.90;;;;;;5155051;27;20232;-84
2023/08/08 05:03:39;;;;;;;3.25;1.50;;;18.90;99.90;;;;;;5144020;27;20661;-84
2023/08/08 05:06:09;;;;;;;2.28;1.50;;;18.90;99.90;;;;;;5135750;27;20194;-83
2023/08/08 05:08:40;;;;;;;3.50;1.60;;;18.80;99.90;;;;;;5136678;27;20678;-84
2023/08/08 05:11:11;;;;;;;2.17;1.35;;;18.80;99.90;;;;;;5155245;27;20197;-84
2023/08/08 05:13:44;;;;;;;3.63;1.33;;;18.80;99.90;;;;;;5155993;27;20280;-85
2023/08/08 05:16:15;;;;;;;2.60;1.40;;;18.70;99.90;;;;;;5158216;27;20199;-84
2023/08/08 05:18:46;;;;;;;3.50;1.30;;;18.70;99.90;;;;;;5149189;27;20229;-84
2023/08/08 05:21:17;;;;;;;4.10;1.40;;;18.50;99.90;;;;;;5136696;27;20222;-85
2023/08/08 05:23:48;;;;;;;4.32;1.50;;;18.50;99.90;;;;;;5135375;27;20201;-84
2023/08/08 05:26:18;;;;;;;3.58;1.63;;;18.60;99.90;;;;;;5133965;27;20189;-84
2023/08/08 05:28:51;;;;;;;3.25;1.55;;;18.70;99.90;;;;;;5133739;27;20557;-85
2023/08/08 05:31:22;;;;;;;4.00;1.67;;;18.70;99.90;;;;;;5133603;27;20624;-84
2023/08/08 05:33:53;;;;;;;3.72;1.25;;;18.70;99.90;;;;;;5133231;27;20213;-83
2023/08/08 05:36:23;;;;;;;3.35;1.33;;;18.80;99.90;;;;;;5133938;27;20565;-84
2023/08/08 05:38:54;;;;;;;3.05;1.40;;;18.70;99.90;;;;;;5138871;27;20207;-83
2023/08/08 05:41:25;;;;;;;3.70;1.48;;;18.60;99.90;;;;;;5153825;27;20229;-84
2023/08/08 05:43:59;;;;;;;2.80;1.50;;;18.60;99.90;;;;;;5154770;27;20221;-84
2023/08/08 05:46:30;;;;;;;2.95;1.35;;;18.60;99.90;;;;;;5154556;27;20204;-84
2023/08/08 05:49:01;;;;;;;5.78;1.70;;;18.60;99.90;;;;;;5154008;27;20199;-84
2023/08/08 05:51:32;;;;;;;2.40;1.30;;;18.60;99.90;;;;;;5152327;27;20219;-84
2023/08/08 05:54:03;;;;;;;2.72;1.33;;;18.70;99.90;;;;;;5143877;27;20565;-85
2023/08/08 05:56:39;;;;;;;4.90;1.98;;;18.80;99.90;;;;;;5133660;27;20197;-85
2023/08/08 05:59:12;;;;;;;4.90;1.65;;;18.80;99.90;;;;;;5133388;27;20245;-85
2023/08/08 06:01:46;;;;;;;4.43;1.42;;;18.80;99.90;;;;;;5133174;27;20194;-83
2023/08/08 06:04:16;;;;;;;3.70;1.30;;;18.80;99.90;;;;;;5133351;27;20198;-84
2023/08/08 06:06:48;;;;;;;1.80;1.30;;;18.90;99.90;;;;;;5140760;27;20193;-84
2023/08/08 06:09:19;;;;;;;2.90;1.23;;;19.00;99.90;;;;;;5147945;27;20208;-84
2023/08/08 06:11:53;;;;;;;2.92;1.30;;;19.00;99.90;;;;;;5135376;27;20198;-84
2023/08/08 06:14:26;;;;;;;2.40;1.38;;;19.10;99.90;;;;;;5135143;27;20193;-83
2023/08/08 06:16:57;;;;;;;2.92;1.38;;;19.20;99.90;;;;;;5134065;27;20222;-84
2023/08/08 06:19:28;;;;;;;2.60;1.25;;;19.20;99.90;;;;;;5091689;28;20199;-85
2023/08/08 06:21:59;;;;;;;2.95;1.30;;;19.30;99.90;;;;;;5101832;28;20680;-84
2023/08/08 06:24:30;;;;;;;2.35;1.10;;;19.40;99.90;;;;;;5107974;28;20191;-83
2023/08/08 06:27:01;;;;;;;4.57;1.30;;;19.50;99.90;;;;;;5111115;27;20286;-83
2023/08/08 06:29:34;;;;;;;4.32;1.50;;;19.60;99.90;;;;;;5111183;28;20198;-82
2023/08/08 06:32:09;;;;;;;4.82;1.50;;;19.50;99.90;;;;;;5090845;28;20192;-83
2023/08/08 06:34:39;;;;;;;2.25;1.10;;;19.60;99.90;;;;;;5091921;28;20558;-85
2023/08/08 06:37:10;;;;;;;3.55;1.20;;;19.60;99.90;;;;;;5091529;28;20191;-86
2023/08/08 06:39:41;;;;;;;3.75;1.30;;;19.50;99.90;;;;;;5102870;28;20191;-83
2023/08/08 06:42:12;;;;;;;3.28;1.40;;;19.30;99.90;;;;;;5092353;28;20289;-84
2023/08/08 06:44:48;;;;;;;6.15;1.40;;;19.20;99.90;;;;;;5096058;28;20215;-84
2023/08/08 06:47:18;;;;;;;3.08;1.13;;;19.00;99.90;;;;;;5100266;28;20674;-84
2023/08/08 06:49:49;;;;;;;2.65;1.20;;;18.90;99.90;;;;;;5091655;28;20543;-84
2023/08/08 06:52:20;;;;;;;3.63;1.40;;;18.80;99.90;;;;;;5095971;28;20543;-85
2023/08/08 06:54:51;;;;;;;4.07;1.35;;;18.70;99.90;;;;;;5108435;28;20198;-84
2023/08/08 06:57:24;;;;;;;3.28;1.20;;;18.70;99.90;;;;;;5113276;28;20210;-84
2023/08/08 06:59:59;;;;;;;3.63;1.50;;;18.50;99.90;;;;;;5104824;28;20225;-84
2023/08/08 07:02:30;;;;;;;2.00;1.10;;;18.40;99.90;;;;;;5112058;28;20665;-84
2023/08/08 07:05:05;;;;;;;3.42;1.50;;;18.40;99.90;;;;;;5102490;28;20241;-85
2023/08/08 07:07:35;;;;;;;2.08;1.00;;;18.20;99.90;;;;;;5107749;28;20198;-87
2023/08/08 07:10:07;;;;;;;3.30;1.33;;;18.20;99.90;;;;;;5096168;28;20202;-84
2023/08/08 07:12:55;;;;;;;3.25;1.27;;;18.10;99.90;;;;;;5093153;28;20922;-85
2023/08/08 07:15:27;;;;;;;3.35;1.40;;;18.00;99.90;;;;;;5096906;28;20183;-84
2023/08/08 07:17:58;;;;;;;2.17;1.30;;;18.00;99.90;;;;;;5110678;27;20308;-84
2023/08/08 07:20:29;;;;;;;2.38;1.17;;;17.90;99.90;;;;;;5133690;27;20270;-85
2023/08/08 07:23:02;;;;;;;2.83;1.45;;;17.80;99.90;;;;;;5136567;27;20220;-85
2023/08/08 07:25:37;;;;;;;3.65;1.52;;;17.70;99.90;;;;;;5137817;27;20285;-85
2023/08/08 07:28:08;;;;;;;5.57;1.70;;;17.70;99.90;;;;;;5136195;27;20197;-85
2023/08/08 07:31:05;;;;;;;3.58;1.60;;;17.60;99.90;;;;;;5135280;28;20198;-85
2023/08/08 07:33:36;;;;;;;3.50;1.38;;;17.60;99.90;;;;;;5112962;27;20198;-85
2023/08/08 07:36:07;;;;;;;2.72;1.50;;;17.60;99.90;;;;;;5131466;28;20537;-85
2023/08/08 07:38:38;;;;;;;3.50;1.85;;;17.50;99.90;;;;;;5131805;28;20189;-84
2023/08/08 07:41:09;;;;;;;3.30;1.50;;;17.50;99.90;;;;;;5131652;27;20305;-83
2023/08/08 07:43:40;;;;;;;3.10;1.60;;;17.40;99.90;;;;;;5131740;27;20560;-84
2023/08/08 07:46:13;;;;;;;3.22;1.67;;;17.40;99.90;;;;;;5134413;27;20635;-85
2023/08/08 07:48:44;;;;;;;4.30;1.50;;;17.40;99.90;;;;;;5131282;27;20210;-85
2023/08/08 07:51:15;;;;;;;4.95;2.47;;;17.40;99.90;;;;;;5135886;27;20652;-85
2023/08/08 07:53:46;;;;;;;3.20;1.90;;;17.30;99.90;;;;;;5148816;27;20675;-85
2023/08/08 07:56:20;;;;;;;3.88;1.83;;;17.30;99.90;;;;;;5152135;27;20672;-86
2023/08/08 07:58:50;;;;;;;3.92;1.73;;;17.30;99.90;;;;;;5152031;27;20280;-85
2023/08/08 08:01:24;;;;;;;4.53;2.05;;;17.30;99.90;;;;;;5152988;27;20262;-84
2023/08/08 08:03:55;;;;;;;4.88;1.88;;;17.20;99.90;;;;;;5150357;27;20198;-85
2023/08/08 08:06:26;;;;;;;3.75;1.77;;;17.30;99.90;;;;;;5132343;27;20652;-85
2023/08/08 08:08:57;;;;;;;5.85;2.72;;;17.20;99.90;;;;;;5142875;27;20198;-86
2023/08/08 08:11:29;;;;;;;7.13;2.40;;;17.20;99.90;;;;;;5152874;27;20201;-86
2023/08/08 08:14:00;;;;;;;5.95;1.92;;;17.20;99.90;;;;;;5151141;27;20557;-86
2023/08/08 08:16:32;;;;;;;2.45;1.92;;;17.20;99.90;;;;;;5141490;27;20567;-84
2023/08/08 08:19:03;;;;;;;4.45;2.10;;;17.20;99.90;;;;;;5135071;27;20271;-86
2023/08/08 08:21:34;;;;;;;2.28;1.77;;;17.20;99.90;;;;;;5134862;27;20312;-86
2023/08/08 08:24:06;;;;;;;5.82;2.80;;;17.20;99.90;;;;;;5134191;27;20198;-86
2023/08/08 08:26:37;;;;;;;3.17;2.58;;;17.10;99.90;;;;;;5134720;27;20237;-84
2023/08/08 08:29:07;;;;;;;4.65;2.60;;;17.10;99.90;;;;;;5134119;27;20190;-84
2023/08/08 08:31:40;;;;;;;6.07;3.58;;;17.10;99.90;;;;;;5135088;27;20214;-85
2023/08/08 08:34:11;;;;;;;7.28;4.40;;;17.10;99.90;;;;;;5135093;27;20197;-84
2023/08/08 08:36:42;;;;;;;8.15;5.05;;;17.10;99.90;;;;;;5135027;27;20193;-84
2023/08/08 08:39:13;;;;;;;7.78;5.25;;;17.10;99.90;;;;;;5148187;27;20198;-84
2023/08/08 08:41:52;;;;;;;7.78;3.50;;;17.00;99.90;;;;;;5137088;27;20320;-85
2023/08/08 08:44:24;;;;;;;4.97;3.70;;;17.10;99.90;;;;;;5151147;27;20206;-84
2023/08/08 08:46:59;;;;;;;8.35;4.85;;;17.00;99.90;;;;;;5141341;27;20201;-85
2023/08/08 08:49:32;;;;;;;6.93;3.80;;;17.00;99.90;;;;;;5141014;27;20193;-83
2023/08/08 08:52:04;;;;;;;9.18;4.18;;;17.00;99.90;;;;;;5134340;27;20194;-85
2023/08/08 08:54:37;;;;;;;8.38;3.97;;;17.00;99.90;;;;;;5145027;27;20651;-84
2023/08/08 08:57:08;;;;;;;6.28;3.50;;;17.00;99.90;;;;;;5133724;27;20562;-86
2023/08/08 08:59:39;;;;;;;7.80;4.97;;;17.00;99.90;;;;;;5143477;27;20197;-86
2023/08/08 09:02:13;;;;;;;7.15;4.20;;;17.00;99.90;;;;;;5141780;27;20620;-84
2023/08/08 09:04:44;;;;;;;6.97;3.70;;;17.00;99.90;;;;;;5135730;27;20198;-86
2023/08/08 09:07:17;;;;;;;5.10;3.00;;;17.00;99.90;;;;;;5142661;27;20190;-84
2023/08/08 09:09:47;;;;;;;7.28;3.35;;;17.00;99.90;;;;;;5158625;27;20205;-85
2023/08/08 09:12:19;;;;;;;4.05;2.72;;;16.90;99.90;;;;;;5161414;27;20252;-85
2023/08/08 09:14:50;;;;;;;5.93;3.50;;;16.90;99.90;;;;;;5142143;27;20249;-85
2023/08/08 09:17:23;;;;;;;8.40;3.40;;;16.90;99.90;;;;;;5137532;27;20238;-85
2023/08/08 09:19:58;;;;;;;5.78;3.35;;;16.90;99.90;;;;;;5142619;27;20192;-85
2023/08/08 09:22:29;;;;;;;4.55;2.80;;;16.90;99.90;;;;;;5154782;27;20232;-85
2023/08/08 09:25:00;;;;;;;4.75;3.10;;;16.80;99.90;;;;;;5139695;27;20190;-85
2023/08/08 09:27:32;;;;;;;7.07;2.90;;;16.80;99.90;;;;;;5133873;27;20190;-85
2023/08/08 09:30:03;;;;;;;5.22;3.03;;;16.80;99.90;;;;;;5133731;27;20197;-85
2023/08/08 09:32:36;;;;;;;7.15;3.22;;;16.80;99.90;;;;;;5133995;27;20229;-85
2023/08/08 09:35:09;;;;;;;4.38;3.13;;;16.70;99.90;;;;;;5133860;27;20198;-86
2023/08/08 09:37:41;;;;;;;5.97;3.17;;;16.70;99.90;;;;;;5134797;27;20547;-87
2023/08/08 09:40:12;;;;;;;7.05;3.42;;;16.70;99.90;;;;;;5133886;27;20631;-86
2023/08/08 09:42:44;;;;;;;5.47;3.20;;;16.70;99.90;;;;;;5133937;27;20245;-85
2023/08/08 09:45:15;;;;;;;8.23;3.17;;;16.70;99.90;;;;;;5133819;27;20599;-85
2023/08/08 09:47:48;;;;;;;6.03;3.03;;;16.70;99.90;;;;;;5133415;27;20280;-87
2023/08/08 09:50:19;;;;;;;6.35;3.05;;;16.60;99.90;;;;;;5134262;27;20314;-87
2023/08/08 09:52:50;;;;;;;6.10;3.20;;;16.60;99.90;;;;;;5137738;27;20250;-85
2023/08/08 09:55:23;;;;;;;6.30;3.28;;;16.60;99.90;;;;;;5133404;27;20190;-86
2023/08/08 09:57:55;;;;;;;4.65;2.83;;;16.60;99.90;;;;;;5133654;27;20198;-85
2023/08/08 10:00:27;;;;;;;4.50;2.58;;;16.60;99.90;;;;;;5133831;27;20194;-84
2023/08/08 10:03:01;;;;;;;5.70;2.47;;;16.60;99.90;;;;;;5132145;27;20201;-85
2023/08/08 10:05:32;;;;;;;5.80;2.63;;;16.60;99.90;;;;;;5133180;27;20194;-86
2023/08/08 10:08:03;;;;;;;6.70;3.10;;;16.60;99.90;;;;;;5145160;27;20217;-86
2023/08/08 10:10:35;;;;;;;6.38;2.95;;;16.50;99.90;;;;;;5153942;27;20197;-85
2023/08/08 10:13:06;;;;;;;5.90;2.90;;;16.50;99.90;;;;;;5152947;27;20554;-86
2023/08/08 10:15:42;;;;;;;5.95;2.92;;;16.60;99.90;;;;;;5139117;27;20206;-86
2023/08/08 10:18:16;;;;;;;6.35;2.85;;;16.50;99.90;;;;;;5132986;27;20231;-87
2023/08/08 10:20:50;;;;;;;5.53;2.72;;;16.50;99.90;;;;;;5133706;27;20284;-85
2023/08/08 10:23:24;;;;;;;5.93;3.00;;;16.50;99.90;;;;;;5133824;27;20198;-85
2023/08/08 10:25:57;;;;;;;7.97;3.50;;;16.50;99.90;;;;;;5138928;27;20277;-86
2023/08/08 10:28:30;;;;;;;11.38;5.63;;;16.50;99.90;;;;;;5152832;27;20196;-86
2023/08/08 10:31:04;;;;;;;7.28;3.97;;;16.50;99.90;;;;;;5144492;27;20276;-86
2023/08/08 10:33:46;;;;;;;9.32;3.58;;;16.50;99.90;;;;;;5132954;27;20198;-86
2023/08/08 10:36:17;;;;;;;8.65;3.80;;;16.50;99.90;;;;;;5131776;27;20189;-85
2023/08/08 10:38:50;;;;;;;7.35;3.58;;;16.40;99.90;;;;;;5132373;27;20189;-85
2023/08/08 10:41:22;;;;;;;7.20;3.60;;;16.40;99.90;;;;;;5132387;27;20221;-85
2023/08/08 10:43:54;;;;;;;9.98;3.85;;;16.40;99.90;;;;;;5131778;27;20210;-85
2023/08/08 10:46:29;;;;;;;7.38;4.03;;;16.40;99.90;;;;;;5131879;27;20190;-86
2023/08/08 10:49:04;;;;;;;7.75;3.50;;;16.40;99.90;;;;;;5132461;27;20204;-85
2023/08/08 10:51:42;;;;;;;7.45;3.72;;;16.30;99.90;;;;;;5131982;27;20197;-86
2023/08/08 10:54:22;;;;;;;7.90;3.00;;;16.30;99.90;;;;;;5132409;27;20205;-84
2023/08/08 10:56:54;;;;;;;6.75;3.17;;;16.30;99.90;;;;;;5132124;27;20193;-85
2023/08/08 10:59:26;;;;;;;7.32;3.60;;;16.20;99.90;;;;;;5140306;27;20277;-85
2023/08/08 11:01:57;;;;;;;9.40;3.40;;;16.20;99.90;;;;;;5134266;27;20687;-85
2023/08/08 11:04:32;;;;;;;14.70;4.43;;;16.20;99.90;;;;;;5149561;27;20723;-85
2023/08/08 11:07:04;;;;;;;7.40;3.65;;;16.20;99.90;;;;;;5146984;27;20193;-85
2023/08/08 11:09:34;;;;;;;8.55;4.00;;;16.20;99.90;;;;;;5135289;27;20194;-85
2023/08/08 11:12:07;;;;;;;8.73;5.20;;;16.10;99.90;;;;;;5132902;27;20284;-85
2023/08/08 11:14:38;;;;;;;7.63;4.20;;;16.00;99.90;;;;;;5132596;27;20633;-85
2023/08/08 11:17:09;;;;;;;10.00;4.47;;;16.00;99.90;;;;;;5132871;27;20541;-86
2023/08/08 11:19:45;;;;;;;6.93;4.25;;;16.00;99.90;;;;;;5135897;27;20182;-86
2023/08/08 11:22:16;;;;;;;9.50;4.30;;;16.00;99.90;;;;;;5135942;27;20588;-86
2023/08/08 11:24:47;;;;;;;7.03;4.25;;;16.00;99.90;;;;;;5132318;27;20274;-86
2023/08/08 11:27:18;;;;;;;8.85;4.60;;;16.00;99.90;;;;;;5132104;28;20194;-86
2023/08/08 11:29:53;;;;;;;7.75;4.30;;;15.90;99.90;;;;;;5131805;27;20190;-85
2023/08/08 11:32:24;;;;;;;6.68;4.13;;;15.90;99.90;;;;;;5132666;27;20189;-85
2023/08/08 11:34:58;;;;;;;5.05;3.65;;;15.90;99.90;;;;;;5131991;27;20761;-85
2023/08/08 11:37:29;;;;;;;5.22;3.85;;;15.80;99.90;;;;;;5132003;27;20193;-86
2023/08/08 11:40:00;;;;;;;6.10;3.80;;;15.80;99.90;;;;;;5131406;27;20198;-86
2023/08/08 11:42:31;;;;;;;6.63;3.50;;;15.80;99.90;;;;;;5133298;27;20700;-87
2023/08/08 11:45:04;;;;;;;6.97;4.00;;;15.70;99.90;;;;;;5137764;27;20763;-85
2023/08/08 11:47:37;;;;;;;5.95;3.80;;;15.60;99.90;;;;;;5153548;27;20200;-85
2023/08/08 11:50:12;;;;;;;7.53;3.85;;;15.60;99.90;;;;;;5140066;27;20198;-85
2023/08/08 11:52:45;;;;;;;4.82;3.70;;;15.60;99.90;;;;;;5136172;27;20192;-85
2023/08/08 11:55:16;;;;;;;7.30;3.90;;;15.60;99.90;;;;;;5136110;27;20198;-86
2023/08/08 11:57:48;;;;;;;6.32;4.15;;;15.70;99.90;;;;;;5135726;27;20225;-85
2023/08/08 12:00:19;;;;;;;4.60;3.45;;;15.70;99.90;;;;;;5138959;27;20193;-85
2023/08/08 12:02:50;;;;;;;7.10;3.58;;;15.70;99.90;;;;;;5138621;27;20225;-84
2023/08/08 12:05:24;;;;;;;8.88;4.00;;;15.70;99.90;;;;;;5139391;27;20275;-84
2023/08/08 12:07:55;;;;;;;4.97;3.28;;;15.70;99.90;;;;;;5136492;27;20197;-85
2023/08/08 12:10:29;;;;;;;7.38;4.20;;;15.70;99.90;;;;;;5135384;27;20652;-85
2023/08/08 12:13:01;;;;;;;7.13;3.80;;;15.80;99.90;;;;;;5139214;27;20219;-85
2023/08/08 12:15:36;;;;;;;6.40;4.15;;;15.70;99.90;;;;;;5144303;27;20181;-86
2023/08/08 12:18:08;;;;;;;7.63;3.70;;;15.80;99.90;;;;;;5139423;27;20237;-85
2023/08/08 12:20:40;;;;;;;7.53;3.90;;;15.70;99.90;;;;;;5137411;27;20664;-85
2023/08/08 12:23:11;;;;;;;6.57;4.22;;;15.70;99.90;;;;;;5151545;27;20865;-85
2023/08/08 12:25:45;;;;;;;9.30;5.03;;;15.70;99.90;;;;;;5135488;27;20204;-85
2023/08/08 12:28:16;;;;;;;7.90;5.00;;;15.70;99.90;;;;;;5135316;27;20221;-86
2023/08/08 12:30:47;;;;;;;6.25;4.45;;;15.70;99.90;;;;;;5134449;27;20201;-85
2023/08/08 12:33:17;;;;;;;9.45;5.30;;;15.70;99.90;;;;;;5141697;27;20201;-84
2023/08/08 12:35:51;;;;;;;8.15;4.85;;;15.60;99.90;;;;;;5155846;27;20189;-85
2023/08/08 12:38:22;;;;;;;7.38;4.57;;;15.50;99.90;;;;;;5156753;27;20200;-85
2023/08/08 12:40:53;;;;;;;9.77;5.32;;;15.50;99.90;;;;;;5155004;27;20610;-85
2023/08/08 12:43:24;;;;;;;6.03;4.20;;;15.40;99.90;;;;;;5142125;27;20554;-85
2023/08/08 12:45:54;;;;;;;10.30;4.68;;;15.40;99.90;;;;;;5135524;27;20187;-84
2023/08/08 12:48:25;;;;;;;8.02;4.88;;;15.40;99.90;;;;;;5146140;27;20194;-86
2023/08/08 12:50:58;;;;;;;8.95;4.82;;;15.40;99.90;;;;;;5135247;27;20201;-86
2023/08/08 12:53:29;;;;;;;7.30;4.50;;;15.30;99.90;;;;;;5139261;27;20656;-86
2023/08/08 12:56:01;;;;;;;8.32;4.55;;;15.40;99.90;;;;;;5135974;27;20189;-85
2023/08/08 12:58:31;;;;;;;7.40;4.55;;;15.30;99.90;;;;;;5152460;27;20204;-85
2023/08/08 13:01:02;;;;;;;7.35;4.82;;;15.30;99.90;;;;;;5156625;27;20731;-84
2023/08/08 13:03:33;;;;;;;8.20;5.15;;;15.30;99.90;;;;;;5136273;27;20217;-86
2023/08/08 13:06:08;;;;;;;8.63;4.90;;;15.30;99.90;;;;;;5136346;27;20239;-86
2023/08/08 13:08:38;;;;;;;6.95;4.78;;;15.20;99.90;;;;;;5146894;27;20196;-85